sensor_id;sensor_type;location;lat;lon;timestamp;P1;P2;P0
64229;PMS5003;50547;49.498;0.092;2022-12-07T00:01:51;34;29;
64229;PMS5003;50547;49.498;0.092;2022-12-07T00:04:20;35;30;
64229;PMS5003;50547;49.498;0.092;2022-12-07T00:06:50;37;33;
64229;PMS5003;50547;49.498;0.092;2022-12-07T00:09:20;35;30;
64229;PMS5003;50547;49.498;0.092;2022-12-07T00:11:50;37;33;
64229;PMS5003;50547;49.498;0.092;2022-12-07T00:14:20;37;33;
64229;PMS5003;50547;49.498;0.092;2022-12-07T00:16:50;37;33;
64229;PMS5003;50547;49.498;0.092;2022-12-07T00:19:20;41;38;
64229;PMS5003;50547;49.498;0.092;2022-12-07T00:21:49;41;38;
64229;PMS5003;50547;49.498;0.092;2022-12-07T00:24:18;41;38;
64229;PMS5003;50547;49.498;0.092;2022-12-07T00:26:47;41;38;
64229;PMS5003;50547;49.498;0.092;2022-12-07T00:29:18;40;36;
64229;PMS5003;50547;49.498;0.092;2022-12-07T00:31:49;41;38;
64229;PMS5003;50547;49.498;0.092;2022-12-07T00:34:19;42;40;
64229;PMS5003;50547;49.498;0.092;2022-12-07T00:36:49;42;40;
64229;PMS5003;50547;49.498;0.092;2022-12-07T00:39:19;41;38;
64229;PMS5003;50547;49.498;0.092;2022-12-07T00:41:48;42;40;
64229;PMS5003;50547;49.498;0.092;2022-12-07T00:44:17;41;38;
64229;PMS5003;50547;49.498;0.092;2022-12-07T00:46:46;41;38;
64229;PMS5003;50547;49.498;0.092;2022-12-07T00:49:15;42;40;
64229;PMS5003;50547;49.498;0.092;2022-12-07T00:51:44;42;40;
64229;PMS5003;50547;49.498;0.092;2022-12-07T00:54:16;42;40;
64229;PMS5003;50547;49.498;0.092;2022-12-07T00:56:45;41;38;
64229;PMS5003;50547;49.498;0.092;2022-12-07T00:59:14;42;40;
64229;PMS5003;50547;49.498;0.092;2022-12-07T01:01:44;42;40;
64229;PMS5003;50547;49.498;0.092;2022-12-07T01:04:13;43;41;
64229;PMS5003;50547;49.498;0.092;2022-12-07T01:06:42;42;40;
64229;PMS5003;50547;49.498;0.092;2022-12-07T01:09:11;42;40;
64229;PMS5003;50547;49.498;0.092;2022-12-07T01:11:40;42;40;
64229;PMS5003;50547;49.498;0.092;2022-12-07T01:14:10;41;38;
64229;PMS5003;50547;49.498;0.092;2022-12-07T01:16:39;41;38;
64229;PMS5003;50547;49.498;0.092;2022-12-07T01:19:08;42;40;
64229;PMS5003;50547;49.498;0.092;2022-12-07T01:21:37;42;40;
64229;PMS5003;50547;49.498;0.092;2022-12-07T01:24:08;41;38;
64229;PMS5003;50547;49.498;0.092;2022-12-07T01:26:39;41;38;
64229;PMS5003;50547;49.498;0.092;2022-12-07T01:29:09;41;38;
64229;PMS5003;50547;49.498;0.092;2022-12-07T01:31:38;42;40;
64229;PMS5003;50547;49.498;0.092;2022-12-07T01:34:07;42;40;
64229;PMS5003;50547;49.498;0.092;2022-12-07T01:36:37;41;38;
64229;PMS5003;50547;49.498;0.092;2022-12-07T01:39:06;38;35;
64229;PMS5003;50547;49.498;0.092;2022-12-07T01:41:38;38;35;
64229;PMS5003;50547;49.498;0.092;2022-12-07T01:44:10;41;38;
64229;PMS5003;50547;49.498;0.092;2022-12-07T01:46:49;41;38;
64229;PMS5003;50547;49.498;0.092;2022-12-07T01:49:22;41;38;
64229;PMS5003;50547;49.498;0.092;2022-12-07T01:51:58;40;36;
64229;PMS5003;50547;49.498;0.092;2022-12-07T01:54:34;40;36;
64229;PMS5003;50547;49.498;0.092;2022-12-07T01:57:04;41;38;
64229;PMS5003;50547;49.498;0.092;2022-12-07T01:59:36;38;35;
64229;PMS5003;50547;49.498;0.092;2022-12-07T02:02:07;41;38;
64229;PMS5003;50547;49.498;0.092;2022-12-07T02:04:41;38;35;
64229;PMS5003;50547;49.498;0.092;2022-12-07T02:07:11;38;35;
64229;PMS5003;50547;49.498;0.092;2022-12-07T02:09:41;37;33;
64229;PMS5003;50547;49.498;0.092;2022-12-07T02:12:10;37;33;
64229;PMS5003;50547;49.498;0.092;2022-12-07T02:14:39;38;35;
64229;PMS5003;50547;49.498;0.092;2022-12-07T02:17:11;38;35;
64229;PMS5003;50547;49.498;0.092;2022-12-07T02:19:50;38;35;
64229;PMS5003;50547;49.498;0.092;2022-12-07T02:23:05;38;35;
64229;PMS5003;50547;49.498;0.092;2022-12-07T02:26:34;37;33;
64229;PMS5003;50547;49.498;0.092;2022-12-07T02:29:20;37;33;
64229;PMS5003;50547;49.498;0.092;2022-12-07T02:31:54;37;33;
64229;PMS5003;50547;49.498;0.092;2022-12-07T02:34:34;37;33;
64229;PMS5003;50547;49.498;0.092;2022-12-07T02:37:09;38;35;
64229;PMS5003;50547;49.498;0.092;2022-12-07T02:39:48;37;33;
64229;PMS5003;50547;49.498;0.092;2022-12-07T02:42:23;36;31;
64229;PMS5003;50547;49.498;0.092;2022-12-07T02:44:56;36;31;
64229;PMS5003;50547;49.498;0.092;2022-12-07T02:47:27;37;33;
64229;PMS5003;50547;49.498;0.092;2022-12-07T02:49:58;35;30;
64229;PMS5003;50547;49.498;0.092;2022-12-07T02:52:28;36;31;
64229;PMS5003;50547;49.498;0.092;2022-12-07T02:54:57;35;30;
64229;PMS5003;50547;49.498;0.092;2022-12-07T02:57:29;34;29;
64229;PMS5003;50547;49.498;0.092;2022-12-07T03:00:10;34;29;
64229;PMS5003;50547;49.498;0.092;2022-12-07T03:02:46;34;29;
64229;PMS5003;50547;49.498;0.092;2022-12-07T03:05:26;34;29;
64229;PMS5003;50547;49.498;0.092;2022-12-07T03:08:05;34;29;
64229;PMS5003;50547;49.498;0.092;2022-12-07T03:10:45;34;29;
64229;PMS5003;50547;49.498;0.092;2022-12-07T03:13:24;33;28;
64229;PMS5003;50547;49.498;0.092;2022-12-07T03:15:59;31;27;
64229;PMS5003;50547;49.498;0.092;2022-12-07T03:18:34;30;26;
64229;PMS5003;50547;49.498;0.092;2022-12-07T03:21:09;28;24;
64229;PMS5003;50547;49.498;0.092;2022-12-07T03:23:43;26;23;
64229;PMS5003;50547;49.498;0.092;2022-12-07T03:26:16;25;22;
64229;PMS5003;50547;49.498;0.092;2022-12-07T03:28:50;25;22;
64229;PMS5003;50547;49.498;0.092;2022-12-07T03:31:23;25;22;
64229;PMS5003;50547;49.498;0.092;2022-12-07T03:33:59;23;20;
64229;PMS5003;50547;49.498;0.092;2022-12-07T03:36:35;24;21;
64229;PMS5003;50547;49.498;0.092;2022-12-07T03:39:11;23;20;
64229;PMS5003;50547;49.498;0.092;2022-12-07T03:41:46;23;20;
64229;PMS5003;50547;49.498;0.092;2022-12-07T03:44:15;23;20;
64229;PMS5003;50547;49.498;0.092;2022-12-07T03:46:47;23;20;
64229;PMS5003;50547;49.498;0.092;2022-12-07T03:49:27;23;20;
64229;PMS5003;50547;49.498;0.092;2022-12-07T03:52:05;23;20;
64229;PMS5003;50547;49.498;0.092;2022-12-07T03:54:41;23;20;
64229;PMS5003;50547;49.498;0.092;2022-12-07T03:57:17;23;20;
64229;PMS5003;50547;49.498;0.092;2022-12-07T03:59:47;23;20;
64229;PMS5003;50547;49.498;0.092;2022-12-07T04:02:16;23;20;
64229;PMS5003;50547;49.498;0.092;2022-12-07T04:04:46;23;20;
64229;PMS5003;50547;49.498;0.092;2022-12-07T04:07:15;23;20;
64229;PMS5003;50547;49.498;0.092;2022-12-07T04:09:44;23;20;
64229;PMS5003;50547;49.498;0.092;2022-12-07T04:12:14;23;20;
64229;PMS5003;50547;49.498;0.092;2022-12-07T04:14:43;23;20;
64229;PMS5003;50547;49.498;0.092;2022-12-07T04:17:12;23;20;
64229;PMS5003;50547;49.498;0.092;2022-12-07T04:19:41;23;20;
64229;PMS5003;50547;49.498;0.092;2022-12-07T04:22:10;23;20;
64229;PMS5003;50547;49.498;0.092;2022-12-07T04:24:40;22;19;
64229;PMS5003;50547;49.498;0.092;2022-12-07T04:27:09;23;20;
64229;PMS5003;50547;49.498;0.092;2022-12-07T04:29:38;23;20;
64229;PMS5003;50547;49.498;0.092;2022-12-07T04:32:07;21;18;
64229;PMS5003;50547;49.498;0.092;2022-12-07T04:34:36;21;18;
64229;PMS5003;50547;49.498;0.092;2022-12-07T04:37:06;20;17;
64229;PMS5003;50547;49.498;0.092;2022-12-07T04:39:35;20;17;
64229;PMS5003;50547;49.498;0.092;2022-12-07T04:42:04;19;17;
64229;PMS5003;50547;49.498;0.092;2022-12-07T04:44:33;20;17;
64229;PMS5003;50547;49.498;0.092;2022-12-07T04:47:03;22;19;
64229;PMS5003;50547;49.498;0.092;2022-12-07T04:49:32;21;18;
64229;PMS5003;50547;49.498;0.092;2022-12-07T04:52:01;20;17;
64229;PMS5003;50547;49.498;0.092;2022-12-07T04:54:31;20;17;
64229;PMS5003;50547;49.498;0.092;2022-12-07T04:57:00;21;18;
64229;PMS5003;50547;49.498;0.092;2022-12-07T04:59:29;21;18;
64229;PMS5003;50547;49.498;0.092;2022-12-07T05:01:58;21;18;
64229;PMS5003;50547;49.498;0.092;2022-12-07T05:04:28;22;19;
64229;PMS5003;50547;49.498;0.092;2022-12-07T05:06:57;23;20;
64229;PMS5003;50547;49.498;0.092;2022-12-07T05:09:26;23;20;
64229;PMS5003;50547;49.498;0.092;2022-12-07T05:11:55;23;20;
64229;PMS5003;50547;49.498;0.092;2022-12-07T05:14:24;23;20;
64229;PMS5003;50547;49.498;0.092;2022-12-07T05:16:54;23;20;
64229;PMS5003;50547;49.498;0.092;2022-12-07T05:19:23;23;20;
64229;PMS5003;50547;49.498;0.092;2022-12-07T05:21:52;27;23;
64229;PMS5003;50547;49.498;0.092;2022-12-07T05:24:21;36;31;
64229;PMS5003;50547;49.498;0.092;2022-12-07T05:26:51;41;38;
64229;PMS5003;50547;49.498;0.092;2022-12-07T05:29:20;42;40;
64229;PMS5003;50547;49.498;0.092;2022-12-07T05:31:49;43;41;
64229;PMS5003;50547;49.498;0.092;2022-12-07T05:34:18;42;40;
64229;PMS5003;50547;49.498;0.092;2022-12-07T05:36:47;44;43;
64229;PMS5003;50547;49.498;0.092;2022-12-07T05:39:17;41;38;
64229;PMS5003;50547;49.498;0.092;2022-12-07T05:41:46;38;35;
64229;PMS5003;50547;49.498;0.092;2022-12-07T05:44:15;37;33;
64229;PMS5003;50547;49.498;0.092;2022-12-07T05:46:44;37;33;
64229;PMS5003;50547;49.498;0.092;2022-12-07T05:49:13;35;30;
64229;PMS5003;50547;49.498;0.092;2022-12-07T05:51:42;35;30;
64229;PMS5003;50547;49.498;0.092;2022-12-07T05:54:12;30;26;
64229;PMS5003;50547;49.498;0.092;2022-12-07T05:56:41;30;26;
64229;PMS5003;50547;49.498;0.092;2022-12-07T05:59:10;30;26;
64229;PMS5003;50547;49.498;0.092;2022-12-07T06:01:39;30;26;
64229;PMS5003;50547;49.498;0.092;2022-12-07T06:04:09;28;24;
64229;PMS5003;50547;49.498;0.092;2022-12-07T06:06:38;28;24;
64229;PMS5003;50547;49.498;0.092;2022-12-07T06:09:07;27;23;
64229;PMS5003;50547;49.498;0.092;2022-12-07T06:11:36;26;23;
64229;PMS5003;50547;49.498;0.092;2022-12-07T06:14:05;27;23;
64229;PMS5003;50547;49.498;0.092;2022-12-07T06:16:35;27;23;
64229;PMS5003;50547;49.498;0.092;2022-12-07T06:19:04;27;23;
64229;PMS5003;50547;49.498;0.092;2022-12-07T06:21:33;25;22;
64229;PMS5003;50547;49.498;0.092;2022-12-07T06:24:02;24;21;
64229;PMS5003;50547;49.498;0.092;2022-12-07T06:26:32;23;20;
64229;PMS5003;50547;49.498;0.092;2022-12-07T06:29:01;23;20;
64229;PMS5003;50547;49.498;0.092;2022-12-07T06:31:30;23;20;
64229;PMS5003;50547;49.498;0.092;2022-12-07T06:34:00;24;21;
64229;PMS5003;50547;49.498;0.092;2022-12-07T06:36:31;25;22;
64229;PMS5003;50547;49.498;0.092;2022-12-07T06:39:02;26;23;
64229;PMS5003;50547;49.498;0.092;2022-12-07T06:41:31;25;22;
64229;PMS5003;50547;49.498;0.092;2022-12-07T06:44:01;24;21;
64229;PMS5003;50547;49.498;0.092;2022-12-07T06:46:30;24;21;
64229;PMS5003;50547;49.498;0.092;2022-12-07T06:48:59;24;21;
64229;PMS5003;50547;49.498;0.092;2022-12-07T06:51:28;25;22;
64229;PMS5003;50547;49.498;0.092;2022-12-07T06:53:57;25;22;
64229;PMS5003;50547;49.498;0.092;2022-12-07T06:56:27;23;20;
64229;PMS5003;50547;49.498;0.092;2022-12-07T06:58:56;23;20;
64229;PMS5003;50547;49.498;0.092;2022-12-07T07:01:25;23;20;
64229;PMS5003;50547;49.498;0.092;2022-12-07T07:03:54;23;20;
64229;PMS5003;50547;49.498;0.092;2022-12-07T07:06:23;23;20;
64229;PMS5003;50547;49.498;0.092;2022-12-07T07:08:52;23;20;
64229;PMS5003;50547;49.498;0.092;2022-12-07T07:11:22;23;20;
64229;PMS5003;50547;49.498;0.092;2022-12-07T07:13:51;23;20;
64229;PMS5003;50547;49.498;0.092;2022-12-07T07:16:20;23;20;
64229;PMS5003;50547;49.498;0.092;2022-12-07T07:18:49;23;20;
64229;PMS5003;50547;49.498;0.092;2022-12-07T07:21:19;22;19;
64229;PMS5003;50547;49.498;0.092;2022-12-07T07:23:48;23;20;
64229;PMS5003;50547;49.498;0.092;2022-12-07T07:26:18;23;20;
64229;PMS5003;50547;49.498;0.092;2022-12-07T07:28:47;23;20;
64229;PMS5003;50547;49.498;0.092;2022-12-07T07:31:16;23;20;
64229;PMS5003;50547;49.498;0.092;2022-12-07T07:33:45;23;20;
64229;PMS5003;50547;49.498;0.092;2022-12-07T07:36:15;23;20;
64229;PMS5003;50547;49.498;0.092;2022-12-07T07:38:44;23;20;
64229;PMS5003;50547;49.498;0.092;2022-12-07T07:41:13;23;20;
64229;PMS5003;50547;49.498;0.092;2022-12-07T07:43:42;23;20;
64229;PMS5003;50547;49.498;0.092;2022-12-07T07:46:11;23;20;
64229;PMS5003;50547;49.498;0.092;2022-12-07T07:48:41;23;20;
64229;PMS5003;50547;49.498;0.092;2022-12-07T07:51:10;23;20;
64229;PMS5003;50547;49.498;0.092;2022-12-07T07:53:44;24;21;
64229;PMS5003;50547;49.498;0.092;2022-12-07T07:56:14;24;21;
64229;PMS5003;50547;49.498;0.092;2022-12-07T07:58:51;22;19;
64229;PMS5003;50547;49.498;0.092;2022-12-07T08:01:17;24;21;
64229;PMS5003;50547;49.498;0.092;2022-12-07T08:03:46;24;21;
64229;PMS5003;50547;49.498;0.092;2022-12-07T08:06:16;25;22;
64229;PMS5003;50547;49.498;0.092;2022-12-07T08:08:45;24;21;
64229;PMS5003;50547;49.498;0.092;2022-12-07T08:11:14;23;20;
64229;PMS5003;50547;49.498;0.092;2022-12-07T08:13:44;23;20;
64229;PMS5003;50547;49.498;0.092;2022-12-07T08:16:15;23;20;
64229;PMS5003;50547;49.498;0.092;2022-12-07T08:18:44;23;20;
64229;PMS5003;50547;49.498;0.092;2022-12-07T08:21:14;23;20;
64229;PMS5003;50547;49.498;0.092;2022-12-07T08:23:44;23;20;
64229;PMS5003;50547;49.498;0.092;2022-12-07T08:26:14;23;20;
64229;PMS5003;50547;49.498;0.092;2022-12-07T08:28:44;23;20;
64229;PMS5003;50547;49.498;0.092;2022-12-07T08:31:14;21;18;
64229;PMS5003;50547;49.498;0.092;2022-12-07T08:33:44;22;19;
64229;PMS5003;50547;49.498;0.092;2022-12-07T08:36:13;22;19;
64229;PMS5003;50547;49.498;0.092;2022-12-07T08:38:48;21;18;
64229;PMS5003;50547;49.498;0.092;2022-12-07T08:41:18;21;18;
64229;PMS5003;50547;49.498;0.092;2022-12-07T08:43:47;22;19;
64229;PMS5003;50547;49.498;0.092;2022-12-07T08:46:17;19;17;
64229;PMS5003;50547;49.498;0.092;2022-12-07T08:48:51;18;16;
64229;PMS5003;50547;49.498;0.092;2022-12-07T08:51:24;18;16;
64229;PMS5003;50547;49.498;0.092;2022-12-07T08:53:54;19;17;
64229;PMS5003;50547;49.498;0.092;2022-12-07T08:56:27;22;19;
64229;PMS5003;50547;49.498;0.092;2022-12-07T08:59:07;22;19;
64229;PMS5003;50547;49.498;0.092;2022-12-07T09:01:36;22;19;
64229;PMS5003;50547;49.498;0.092;2022-12-07T09:04:06;21;18;
64229;PMS5003;50547;49.498;0.092;2022-12-07T09:06:35;22;19;
64229;PMS5003;50547;49.498;0.092;2022-12-07T09:09:04;22;19;
64229;PMS5003;50547;49.498;0.092;2022-12-07T09:11:35;22;19;
64229;PMS5003;50547;49.498;0.092;2022-12-07T09:14:04;20;17;
64229;PMS5003;50547;49.498;0.092;2022-12-07T09:16:34;20;17;
64229;PMS5003;50547;49.498;0.092;2022-12-07T09:19:03;22;19;
64229;PMS5003;50547;49.498;0.092;2022-12-07T09:21:30;20;17;
64229;PMS5003;50547;49.498;0.092;2022-12-07T09:23:59;20;17;
64229;PMS5003;50547;49.498;0.092;2022-12-07T09:26:30;20;17;
64229;PMS5003;50547;49.498;0.092;2022-12-07T09:29:03;21;18;
64229;PMS5003;50547;49.498;0.092;2022-12-07T09:31:32;20;17;
64229;PMS5003;50547;49.498;0.092;2022-12-07T09:34:04;20;17;
64229;PMS5003;50547;49.498;0.092;2022-12-07T09:36:33;20;17;
64229;PMS5003;50547;49.498;0.092;2022-12-07T09:39:03;20;17;
64229;PMS5003;50547;49.498;0.092;2022-12-07T09:41:32;19;17;
64229;PMS5003;50547;49.498;0.092;2022-12-07T09:44:28;18;16;
64229;PMS5003;50547;49.498;0.092;2022-12-07T09:46:57;18;16;
64229;PMS5003;50547;49.498;0.092;2022-12-07T09:49:27;18;16;
64229;PMS5003;50547;49.498;0.092;2022-12-07T09:52:00;18;16;
64229;PMS5003;50547;49.498;0.092;2022-12-07T09:54:31;17;15;
64229;PMS5003;50547;49.498;0.092;2022-12-07T09:57:04;18;16;
64229;PMS5003;50547;49.498;0.092;2022-12-07T09:59:33;15;14;
64229;PMS5003;50547;49.498;0.092;2022-12-07T10:02:19;15;14;
64229;PMS5003;50547;49.498;0.092;2022-12-07T10:04:54;15;14;
64229;PMS5003;50547;49.498;0.092;2022-12-07T10:07:26;14;14;
64229;PMS5003;50547;49.498;0.092;2022-12-07T10:09:55;14;14;
64229;PMS5003;50547;49.498;0.092;2022-12-07T10:12:24;14;14;
64229;PMS5003;50547;49.498;0.092;2022-12-07T10:14:54;14;14;
64229;PMS5003;50547;49.498;0.092;2022-12-07T10:17:32;14;14;
64229;PMS5003;50547;49.498;0.092;2022-12-07T10:20:21;14;14;
64229;PMS5003;50547;49.498;0.092;2022-12-07T10:22:54;14;14;
64229;PMS5003;50547;49.498;0.092;2022-12-07T10:25:27;14;14;
64229;PMS5003;50547;49.498;0.092;2022-12-07T10:28:00;14;14;
64229;PMS5003;50547;49.498;0.092;2022-12-07T10:30:47;14;14;
64229;PMS5003;50547;49.498;0.092;2022-12-07T10:33:35;14;14;
64229;PMS5003;50547;49.498;0.092;2022-12-07T10:36:16;14;14;
64229;PMS5003;50547;49.498;0.092;2022-12-07T10:38:48;14;14;
64229;PMS5003;50547;49.498;0.092;2022-12-07T10:41:24;14;14;
64229;PMS5003;50547;49.498;0.092;2022-12-07T10:43:54;14;14;
64229;PMS5003;50547;49.498;0.092;2022-12-07T10:47:32;14;14;
64229;PMS5003;50547;49.498;0.092;2022-12-07T10:50:13;14;14;
64229;PMS5003;50547;49.498;0.092;2022-12-07T10:52:57;15;14;
64229;PMS5003;50547;49.498;0.092;2022-12-07T10:55:43;14;14;
64229;PMS5003;50547;49.498;0.092;2022-12-07T10:58:28;14;14;
64229;PMS5003;50547;49.498;0.092;2022-12-07T11:01:10;14;14;
64229;PMS5003;50547;49.498;0.092;2022-12-07T11:03:52;13;13;
64229;PMS5003;50547;49.498;0.092;2022-12-07T11:06:33;14;14;
64229;PMS5003;50547;49.498;0.092;2022-12-07T11:09:16;13;13;
64229;PMS5003;50547;49.498;0.092;2022-12-07T11:12:17;14;14;
64229;PMS5003;50547;49.498;0.092;2022-12-07T11:15:00;14;14;
64229;PMS5003;50547;49.498;0.092;2022-12-07T11:17:34;15;14;
64229;PMS5003;50547;49.498;0.092;2022-12-07T11:20:15;14;14;
64229;PMS5003;50547;49.498;0.092;2022-12-07T11:23:04;15;14;
64229;PMS5003;50547;49.498;0.092;2022-12-07T11:25:54;14;14;
64229;PMS5003;50547;49.498;0.092;2022-12-07T11:28:41;14;14;
64229;PMS5003;50547;49.498;0.092;2022-12-07T11:31:28;13;13;
64229;PMS5003;50547;49.498;0.092;2022-12-07T11:34:03;14;14;
64229;PMS5003;50547;49.498;0.092;2022-12-07T11:36:39;14;14;
64229;PMS5003;50547;49.498;0.092;2022-12-07T11:39:15;13;13;
64229;PMS5003;50547;49.498;0.092;2022-12-07T11:41:55;13;13;
64229;PMS5003;50547;49.498;0.092;2022-12-07T11:44:31;13;13;
64229;PMS5003;50547;49.498;0.092;2022-12-07T11:47:07;13;13;
64229;PMS5003;50547;49.498;0.092;2022-12-07T11:49:42;13;13;
64229;PMS5003;50547;49.498;0.092;2022-12-07T11:52:18;13;13;
64229;PMS5003;50547;49.498;0.092;2022-12-07T11:54:54;11;11;
64229;PMS5003;50547;49.498;0.092;2022-12-07T11:57:25;13;13;
64229;PMS5003;50547;49.498;0.092;2022-12-07T12:00:03;13;13;
64229;PMS5003;50547;49.498;0.092;2022-12-07T12:02:36;13;13;
64229;PMS5003;50547;49.498;0.092;2022-12-07T12:05:13;13;13;
64229;PMS5003;50547;49.498;0.092;2022-12-07T12:07:46;12;12;
64229;PMS5003;50547;49.498;0.092;2022-12-07T12:10:22;15;14;
64229;PMS5003;50547;49.498;0.092;2022-12-07T12:13:06;13;13;
64229;PMS5003;50547;49.498;0.092;2022-12-07T12:15:54;14;14;
64229;PMS5003;50547;49.498;0.092;2022-12-07T12:18:38;13;13;
64229;PMS5003;50547;49.498;0.092;2022-12-07T12:21:16;11;11;
64229;PMS5003;50547;49.498;0.092;2022-12-07T12:23:50;13;13;
64229;PMS5003;50547;49.498;0.092;2022-12-07T12:26:25;11;11;
64229;PMS5003;50547;49.498;0.092;2022-12-07T12:28:54;11;11;
64229;PMS5003;50547;49.498;0.092;2022-12-07T12:31:35;13;13;
64229;PMS5003;50547;49.498;0.092;2022-12-07T12:34:57;11;11;
64229;PMS5003;50547;49.498;0.092;2022-12-07T12:38:21;11;11;
64229;PMS5003;50547;49.498;0.092;2022-12-07T12:40:54;11;11;
64229;PMS5003;50547;49.498;0.092;2022-12-07T12:43:50;11;11;
64229;PMS5003;50547;49.498;0.092;2022-12-07T12:46:37;13;13;
64229;PMS5003;50547;49.498;0.092;2022-12-07T12:50:21;13;13;
64229;PMS5003;50547;49.498;0.092;2022-12-07T12:52:54;11;11;
64229;PMS5003;50547;49.498;0.092;2022-12-07T12:56:17;11;11;
64229;PMS5003;50547;49.498;0.092;2022-12-07T12:59:18;11;11;
64229;PMS5003;50547;49.498;0.092;2022-12-07T13:01:53;11;11;
64229;PMS5003;50547;49.498;0.092;2022-12-07T13:04:39;11;11;
64229;PMS5003;50547;49.498;0.092;2022-12-07T13:07:54;11;11;
64229;PMS5003;50547;49.498;0.092;2022-12-07T13:10:36;11;11;
64229;PMS5003;50547;49.498;0.092;2022-12-07T13:13:40;11;11;
64229;PMS5003;50547;49.498;0.092;2022-12-07T13:16:42;11;11;
64229;PMS5003;50547;49.498;0.092;2022-12-07T13:19:52;10;10;
64229;PMS5003;50547;49.498;0.092;2022-12-07T13:22:35;10;10;
64229;PMS5003;50547;49.498;0.092;2022-12-07T13:25:18;10;10;
64229;PMS5003;50547;49.498;0.092;2022-12-07T13:27:57;10;10;
64229;PMS5003;50547;49.498;0.092;2022-12-07T13:30:27;10;10;
64229;PMS5003;50547;49.498;0.092;2022-12-07T13:32:58;10;10;
64229;PMS5003;50547;49.498;0.092;2022-12-07T13:35:33;10;10;
64229;PMS5003;50547;49.498;0.092;2022-12-07T13:38:05;10;10;
64229;PMS5003;50547;49.498;0.092;2022-12-07T13:40:58;10;10;
64229;PMS5003;50547;49.498;0.092;2022-12-07T13:43:29;10;10;
64229;PMS5003;50547;49.498;0.092;2022-12-07T13:45:58;10;10;
64229;PMS5003;50547;49.498;0.092;2022-12-07T13:48:30;10;10;
64229;PMS5003;50547;49.498;0.092;2022-12-07T13:51:03;10;10;
64229;PMS5003;50547;49.498;0.092;2022-12-07T13:53:32;10;10;
64229;PMS5003;50547;49.498;0.092;2022-12-07T13:56:01;18;16;
64229;PMS5003;50547;49.498;0.092;2022-12-07T13:58:31;13;13;
64229;PMS5003;50547;49.498;0.092;2022-12-07T14:01:02;10;10;
64229;PMS5003;50547;49.498;0.092;2022-12-07T14:03:32;8;8;
64229;PMS5003;50547;49.498;0.092;2022-12-07T14:06:03;8;8;
64229;PMS5003;50547;49.498;0.092;2022-12-07T14:08:35;10;10;
64229;PMS5003;50547;49.498;0.092;2022-12-07T14:11:04;8;8;
64229;PMS5003;50547;49.498;0.092;2022-12-07T14:13:37;7;7;
64229;PMS5003;50547;49.498;0.092;2022-12-07T14:16:17;7;7;
64229;PMS5003;50547;49.498;0.092;2022-12-07T14:18:51;7;7;
64229;PMS5003;50547;49.498;0.092;2022-12-07T14:21:22;7;7;
64229;PMS5003;50547;49.498;0.092;2022-12-07T14:24:24;7;7;
64229;PMS5003;50547;49.498;0.092;2022-12-07T14:26:54;6;6;
64229;PMS5003;50547;49.498;0.092;2022-12-07T14:29:30;6;6;
64229;PMS5003;50547;49.498;0.092;2022-12-07T14:32:12;6;6;
64229;PMS5003;50547;49.498;0.092;2022-12-07T14:34:56;5;5;
64229;PMS5003;50547;49.498;0.092;2022-12-07T14:37:27;4;4;
64229;PMS5003;50547;49.498;0.092;2022-12-07T14:39:58;4;4;
64229;PMS5003;50547;49.498;0.092;2022-12-07T14:42:27;4;4;
64229;PMS5003;50547;49.498;0.092;2022-12-07T14:44:57;4;4;
64229;PMS5003;50547;49.498;0.092;2022-12-07T14:47:26;4;4;
64229;PMS5003;50547;49.498;0.092;2022-12-07T14:49:56;4;4;
64229;PMS5003;50547;49.498;0.092;2022-12-07T14:52:26;4;4;
64229;PMS5003;50547;49.498;0.092;2022-12-07T14:54:57;4;4;
64229;PMS5003;50547;49.498;0.092;2022-12-07T14:57:24;8;8;
64229;PMS5003;50547;49.498;0.092;2022-12-07T14:59:53;11;11;
64229;PMS5003;50547;49.498;0.092;2022-12-07T15:02:22;11;11;
64229;PMS5003;50547;49.498;0.092;2022-12-07T15:04:51;11;11;
64229;PMS5003;50547;49.498;0.092;2022-12-07T15:07:20;14;14;
64229;PMS5003;50547;49.498;0.092;2022-12-07T15:09:49;10;10;
64229;PMS5003;50547;49.498;0.092;2022-12-07T15:12:19;10;10;
64229;PMS5003;50547;49.498;0.092;2022-12-07T15:14:48;8;8;
64229;PMS5003;50547;49.498;0.092;2022-12-07T15:17:17;8;8;
64229;PMS5003;50547;49.498;0.092;2022-12-07T15:19:47;7;7;
64229;PMS5003;50547;49.498;0.092;2022-12-07T15:22:16;8;8;
64229;PMS5003;50547;49.498;0.092;2022-12-07T15:24:45;8;8;
64229;PMS5003;50547;49.498;0.092;2022-12-07T15:27:14;8;8;
64229;PMS5003;50547;49.498;0.092;2022-12-07T15:29:43;8;8;
64229;PMS5003;50547;49.498;0.092;2022-12-07T15:32:12;10;10;
64229;PMS5003;50547;49.498;0.092;2022-12-07T15:34:42;11;11;
64229;PMS5003;50547;49.498;0.092;2022-12-07T15:37:11;10;10;
64229;PMS5003;50547;49.498;0.092;2022-12-07T15:39:40;10;10;
64229;PMS5003;50547;49.498;0.092;2022-12-07T15:42:09;10;10;
64229;PMS5003;50547;49.498;0.092;2022-12-07T15:44:38;10;10;
64229;PMS5003;50547;49.498;0.092;2022-12-07T15:47:08;10;10;
64229;PMS5003;50547;49.498;0.092;2022-12-07T15:49:37;10;10;
64229;PMS5003;50547;49.498;0.092;2022-12-07T15:52:06;9;9;
64229;PMS5003;50547;49.498;0.092;2022-12-07T15:54:35;10;10;
64229;PMS5003;50547;49.498;0.092;2022-12-07T15:57:05;10;10;
64229;PMS5003;50547;49.498;0.092;2022-12-07T15:59:34;9;9;
64229;PMS5003;50547;49.498;0.092;2022-12-07T16:02:03;10;10;
64229;PMS5003;50547;49.498;0.092;2022-12-07T16:04:32;9;9;
64229;PMS5003;50547;49.498;0.092;2022-12-07T16:07:01;8;8;
64229;PMS5003;50547;49.498;0.092;2022-12-07T16:09:31;8;8;
64229;PMS5003;50547;49.498;0.092;2022-12-07T16:12:00;9;9;
64229;PMS5003;50547;49.498;0.092;2022-12-07T16:14:29;8;8;
64229;PMS5003;50547;49.498;0.092;2022-12-07T16:16:59;7;7;
64229;PMS5003;50547;49.498;0.092;2022-12-07T16:19:28;8;8;
64229;PMS5003;50547;49.498;0.092;2022-12-07T16:21:57;8;8;
64229;PMS5003;50547;49.498;0.092;2022-12-07T16:24:27;8;8;
64229;PMS5003;50547;49.498;0.092;2022-12-07T16:26:56;7;7;
64229;PMS5003;50547;49.498;0.092;2022-12-07T16:29:25;7;7;
64229;PMS5003;50547;49.498;0.092;2022-12-07T16:31:55;7;7;
64229;PMS5003;50547;49.498;0.092;2022-12-07T16:34:24;7;7;
64229;PMS5003;50547;49.498;0.092;2022-12-07T16:36:53;5;5;
64229;PMS5003;50547;49.498;0.092;2022-12-07T16:39:22;5;5;
64229;PMS5003;50547;49.498;0.092;2022-12-07T16:41:51;6;6;
64229;PMS5003;50547;49.498;0.092;2022-12-07T16:44:20;6;6;
64229;PMS5003;50547;49.498;0.092;2022-12-07T16:46:50;6;6;
64229;PMS5003;50547;49.498;0.092;2022-12-07T16:49:19;5;5;
64229;PMS5003;50547;49.498;0.092;2022-12-07T16:51:48;4;4;
64229;PMS5003;50547;49.498;0.092;2022-12-07T16:54:18;5;5;
64229;PMS5003;50547;49.498;0.092;2022-12-07T16:56:47;6;6;
64229;PMS5003;50547;49.498;0.092;2022-12-07T16:59:16;5;5;
64229;PMS5003;50547;49.498;0.092;2022-12-07T17:01:46;5;5;
64229;PMS5003;50547;49.498;0.092;2022-12-07T17:04:15;5;5;